100LL.CA
Aviation Fuel Pricing for Canadians
Please upgrade your browser - Tested with IE9, FireFox, Chrome, Safari

Fuel Airports Other Help
Prices Economy Info List METAR/TAF Kneeboard Help

Reference Airport: PORT HAWKESBURY, NS
N 45 39 23  W 061 22 06
Provinces to show:

CYPD PORT HAWKESBURY, NS
WEATHER
METARCYPD 221500Z AUTO 28006KT 240V320 9SM CLR 23/11 A3005 RMK SLP178 DENSITY ALT 1300FT
OTHER SITES

FlightAware

FltPlan

Google Maps

SkyVector
FUEL
FBO 100LL
member
100LL
public
JETA MOGAS
Opr (2021-03-07)2.2892.174
Canada Flight Supplement - CYPD
(opens in new tab/window)


Please Send Updates!

Desktop Version ]  [ Mobile Version ]  [ Disclaimer ]